createdAt,value
2022-12-31T00:01:58.395Z,8.40
2022-12-31T00:04:31.008Z,8.50
2022-12-31T00:07:03.529Z,8.30
2022-12-31T00:09:38.900Z,8.60
2022-12-31T00:12:11.618Z,9.00
2022-12-31T00:14:44.101Z,8.90
2022-12-31T00:17:16.556Z,8.90
2022-12-31T00:19:49.582Z,9.90
2022-12-31T00:22:22.829Z,9.40
2022-12-31T00:24:55.312Z,10.40
2022-12-31T00:27:27.861Z,9.60
2022-12-31T00:30:04.665Z,9.10
2022-12-31T00:32:37.580Z,8.90
2022-12-31T00:35:14.174Z,9.20
2022-12-31T00:37:46.757Z,8.40
2022-12-31T00:40:19.399Z,9.70
2022-12-31T00:42:51.933Z,8.70
2022-12-31T00:45:25.439Z,9.20
2022-12-31T00:47:57.976Z,9.60
2022-12-31T00:50:30.604Z,9.60
2022-12-31T00:53:03.068Z,10.10
2022-12-31T00:55:35.623Z,8.40
2022-12-31T00:58:09.280Z,8.80
2022-12-31T01:00:43.097Z,8.00
2022-12-31T01:03:15.792Z,8.60
2022-12-31T01:05:48.376Z,8.20
2022-12-31T01:08:21.272Z,8.50
2022-12-31T01:11:11.174Z,8.20
2022-12-31T01:13:43.669Z,8.50
2022-12-31T01:16:18.139Z,8.60
2022-12-31T01:18:51.797Z,8.90
2022-12-31T01:21:25.927Z,8.40
2022-12-31T01:23:58.951Z,8.50
2022-12-31T01:26:32.059Z,8.50
2022-12-31T01:29:05.038Z,9.10
2022-12-31T01:31:39.037Z,7.90
2022-12-31T01:34:12.965Z,9.30
2022-12-31T01:36:45.485Z,8.10
2022-12-31T01:39:18.004Z,8.40
2022-12-31T01:41:50.999Z,7.80
2022-12-31T01:45:00.194Z,9.10
2022-12-31T01:47:40.628Z,9.10
2022-12-31T01:50:19.652Z,8.60
2022-12-31T01:52:56.076Z,8.20
2022-12-31T01:55:34.575Z,8.30
2022-12-31T01:58:11.564Z,8.30
2022-12-31T02:00:46.798Z,7.90
2022-12-31T02:03:19.962Z,8.20
2022-12-31T02:05:59.147Z,8.50
2022-12-31T02:08:34.609Z,8.80
2022-12-31T02:11:29.230Z,8.60
2022-12-31T02:14:05.395Z,8.00
2022-12-31T02:16:47.979Z,8.10
2022-12-31T02:19:57.580Z,7.70
2022-12-31T02:22:49.335Z,8.20
2022-12-31T02:25:48.238Z,7.90
2022-12-31T02:28:37.059Z,8.40
2022-12-31T02:31:16.730Z,8.10
2022-12-31T02:33:56.201Z,8.40
2022-12-31T02:36:33.655Z,8.10
2022-12-31T02:39:08.835Z,8.50
2022-12-31T02:41:53.992Z,8.10
2022-12-31T02:44:28.750Z,8.10
2022-12-31T02:47:32.136Z,8.00
2022-12-31T02:50:21.527Z,7.80
2022-12-31T02:53:05.389Z,8.70
2022-12-31T02:55:47.184Z,8.30
2022-12-31T02:58:44.277Z,8.70
2022-12-31T03:01:39.116Z,8.80
2022-12-31T03:04:27.249Z,8.10
2022-12-31T03:07:01.334Z,8.30
2022-12-31T03:09:34.352Z,8.10
2022-12-31T03:12:26.898Z,8.10
2022-12-31T03:15:00.304Z,8.40
2022-12-31T03:17:32.823Z,8.80
2022-12-31T03:20:23.100Z,8.30
2022-12-31T03:22:55.593Z,8.50
2022-12-31T03:25:38.157Z,8.50
2022-12-31T03:28:14.102Z,8.20
2022-12-31T03:30:49.258Z,8.10
2022-12-31T03:33:22.181Z,7.80
2022-12-31T03:35:55.509Z,10.20
2022-12-31T03:38:28.092Z,8.70
2022-12-31T03:41:00.607Z,8.30
2022-12-31T03:43:33.172Z,8.40
2022-12-31T03:46:05.796Z,8.70
2022-12-31T03:48:40.066Z,8.10
2022-12-31T03:51:12.672Z,8.40
2022-12-31T03:53:45.169Z,8.60
2022-12-31T03:56:17.653Z,8.70
2022-12-31T03:58:50.166Z,8.40
2022-12-31T04:01:25.559Z,7.90
2022-12-31T04:03:58.155Z,7.60
2022-12-31T04:06:30.766Z,8.20
2022-12-31T04:09:03.257Z,8.20
2022-12-31T04:11:35.724Z,7.60
2022-12-31T04:14:08.819Z,7.40
2022-12-31T04:16:41.497Z,7.90
2022-12-31T04:19:14.368Z,8.10
2022-12-31T04:21:46.912Z,7.80
2022-12-31T04:24:19.470Z,7.30
2022-12-31T04:26:52.929Z,7.10
2022-12-31T04:29:25.719Z,7.60
2022-12-31T04:31:58.351Z,7.00
2022-12-31T04:34:30.910Z,7.60
2022-12-31T04:37:03.806Z,8.00
2022-12-31T04:39:37.522Z,7.30
2022-12-31T04:42:10.177Z,7.20
2022-12-31T04:44:42.647Z,7.40
2022-12-31T04:47:21.745Z,7.20
2022-12-31T04:49:56.085Z,7.30
2022-12-31T04:52:28.931Z,7.10
2022-12-31T04:55:01.508Z,7.70
2022-12-31T04:57:33.995Z,6.70
2022-12-31T05:00:08.087Z,7.00
2022-12-31T05:02:41.969Z,6.90
2022-12-31T05:05:15.784Z,6.80
2022-12-31T05:07:48.352Z,6.80
2022-12-31T05:10:20.955Z,6.50
2022-12-31T05:12:53.513Z,6.70
2022-12-31T05:15:26.087Z,8.80
2022-12-31T05:17:58.941Z,8.30
2022-12-31T05:20:32.120Z,7.10
2022-12-31T05:23:04.735Z,6.50
2022-12-31T05:25:38.588Z,7.00
2022-12-31T05:28:11.343Z,7.00
2022-12-31T05:30:44.227Z,6.50
2022-12-31T05:33:16.716Z,6.40
2022-12-31T05:35:49.279Z,6.70
2022-12-31T05:38:21.771Z,7.80
2022-12-31T05:41:02.431Z,7.10
2022-12-31T05:43:35.359Z,6.90
2022-12-31T05:46:08.266Z,7.30
2022-12-31T05:48:41.002Z,6.90
2022-12-31T05:51:13.844Z,6.80
2022-12-31T05:53:46.375Z,7.30
2022-12-31T05:56:20.648Z,6.70
2022-12-31T05:58:53.276Z,6.50
2022-12-31T06:01:25.911Z,7.00
2022-12-31T06:03:59.826Z,6.60
2022-12-31T06:06:32.639Z,6.20
2022-12-31T06:09:05.493Z,6.80
2022-12-31T06:11:37.968Z,6.40
2022-12-31T06:14:10.937Z,7.00
2022-12-31T06:16:45.026Z,6.10
2022-12-31T06:19:17.850Z,6.90
2022-12-31T06:21:50.344Z,6.50
2022-12-31T06:24:23.081Z,6.80
2022-12-31T06:26:55.663Z,6.50
2022-12-31T06:29:28.377Z,6.50
2022-12-31T06:32:03.247Z,6.70
2022-12-31T06:34:35.766Z,7.00
2022-12-31T06:37:08.561Z,6.50
2022-12-31T06:39:41.182Z,6.70
2022-12-31T06:42:14.355Z,7.20
2022-12-31T06:44:48.175Z,7.00
2022-12-31T06:47:20.986Z,7.20
2022-12-31T06:49:53.465Z,7.60
2022-12-31T06:52:26.074Z,7.50
2022-12-31T06:54:59.418Z,7.20
2022-12-31T06:57:32.870Z,7.90
2022-12-31T07:00:07.026Z,6.90
2022-12-31T07:03:11.143Z,7.50
2022-12-31T07:05:51.575Z,7.60
2022-12-31T07:08:51.197Z,7.10
2022-12-31T07:11:27.589Z,6.80
2022-12-31T07:14:09.921Z,7.60
2022-12-31T07:17:04.962Z,7.20
2022-12-31T07:19:57.172Z,7.60
2022-12-31T07:22:33.615Z,7.30
2022-12-31T07:25:08.359Z,7.30
2022-12-31T07:27:56.745Z,7.30
2022-12-31T07:30:37.408Z,7.20
2022-12-31T07:33:32.763Z,7.10
2022-12-31T07:36:19.081Z,7.10
2022-12-31T07:38:59.932Z,7.80
2022-12-31T07:41:44.376Z,8.50
2022-12-31T07:44:32.632Z,7.90
2022-12-31T07:47:17.204Z,7.80
2022-12-31T07:49:50.611Z,7.40
2022-12-31T07:52:24.892Z,8.10
2022-12-31T07:54:57.589Z,7.10
2022-12-31T07:57:42.331Z,7.40
2022-12-31T08:00:18.127Z,7.80
2022-12-31T08:03:13.039Z,7.00
2022-12-31T08:05:57.299Z,8.10
2022-12-31T08:08:43.181Z,7.90
2022-12-31T08:11:25.083Z,8.00
2022-12-31T08:14:02.073Z,7.90
2022-12-31T08:16:35.765Z,8.30
2022-12-31T08:19:16.907Z,8.00
2022-12-31T08:21:58.333Z,7.70
2022-12-31T08:24:41.698Z,7.40
2022-12-31T08:27:24.143Z,7.60
2022-12-31T08:30:03.960Z,7.40
2022-12-31T08:32:43.520Z,7.20
2022-12-31T08:35:26.272Z,7.80
2022-12-31T08:38:08.632Z,7.60
2022-12-31T08:41:02.149Z,6.50
2022-12-31T08:43:49.646Z,6.80
2022-12-31T08:46:27.937Z,6.80
2022-12-31T08:49:03.014Z,7.20
2022-12-31T08:51:36.518Z,7.90
2022-12-31T08:54:11.609Z,7.50
2022-12-31T08:56:51.453Z,7.40
2022-12-31T08:59:34.804Z,7.20
2022-12-31T09:02:24.969Z,6.50
2022-12-31T09:05:07.130Z,7.50
2022-12-31T09:07:42.706Z,7.20
2022-12-31T09:10:23.909Z,6.90
2022-12-31T09:13:04.358Z,7.20
2022-12-31T09:15:42.733Z,7.40
2022-12-31T09:20:47.939Z,7.10
2022-12-31T09:23:22.751Z,7.30
2022-12-31T09:26:02.228Z,8.00
2022-12-31T09:28:44.209Z,7.20
2022-12-31T09:31:23.310Z,8.60
2022-12-31T09:34:03.969Z,7.80
2022-12-31T09:36:42.580Z,8.90
2022-12-31T09:39:24.278Z,7.60
2022-12-31T09:42:19.898Z,7.30
2022-12-31T09:45:20.819Z,7.70
2022-12-31T09:48:35.865Z,7.80
2022-12-31T09:51:28.522Z,7.80
2022-12-31T09:54:30.654Z,9.40
2022-12-31T09:57:38.962Z,7.10
2022-12-31T10:00:21.291Z,7.30
2022-12-31T10:03:09.274Z,8.90
2022-12-31T10:05:57.304Z,9.10
2022-12-31T10:08:49.271Z,7.40
2022-12-31T10:14:35.383Z,7.40
2022-12-31T10:17:19.595Z,6.50
2022-12-31T10:20:14.628Z,7.10
2022-12-31T10:23:03.449Z,7.50
2022-12-31T10:25:53.575Z,7.20
2022-12-31T10:28:40.853Z,7.00
2022-12-31T10:31:23.983Z,8.30
2022-12-31T10:34:14.273Z,7.00
2022-12-31T10:37:05.477Z,7.50
2022-12-31T10:39:52.047Z,7.80
2022-12-31T10:42:47.990Z,7.80
2022-12-31T10:45:47.865Z,7.50
2022-12-31T10:49:05.161Z,7.50
2022-12-31T10:52:07.469Z,6.90
2022-12-31T10:55:25.733Z,7.60
2022-12-31T10:58:27.060Z,7.20
2022-12-31T11:01:10.037Z,7.70
2022-12-31T11:04:21.227Z,8.40
2022-12-31T11:07:34.159Z,8.20
2022-12-31T11:10:58.380Z,8.00
2022-12-31T11:14:01.103Z,8.00
2022-12-31T11:17:13.809Z,8.40
2022-12-31T11:19:58.821Z,8.70
2022-12-31T11:22:58.038Z,8.40
2022-12-31T11:25:41.455Z,11.30
2022-12-31T11:28:32.622Z,8.00
2022-12-31T11:31:21.374Z,8.90
2022-12-31T11:34:11.862Z,10.40
2022-12-31T11:37:01.079Z,10.90
2022-12-31T11:39:46.177Z,9.80
2022-12-31T11:42:27.063Z,9.30
2022-12-31T11:45:04.023Z,9.00
2022-12-31T11:48:29.061Z,9.00
2022-12-31T11:50:59.418Z,12.10
2022-12-31T11:53:55.142Z,9.80
2022-12-31T11:56:33.737Z,9.60
2022-12-31T11:59:18.861Z,10.00
2022-12-31T12:02:00.036Z,9.00
2022-12-31T12:04:33.350Z,10.00
2022-12-31T12:07:11.939Z,9.60
2022-12-31T12:09:49.905Z,9.40
2022-12-31T12:12:22.969Z,8.90
2022-12-31T12:14:57.392Z,9.50
2022-12-31T12:17:34.567Z,10.20
2022-12-31T12:20:18.484Z,9.60
2022-12-31T12:22:57.627Z,9.50
2022-12-31T12:25:40.669Z,9.90
2022-12-31T12:28:23.760Z,9.40
2022-12-31T12:31:03.543Z,10.50
2022-12-31T12:33:46.875Z,10.10
2022-12-31T12:36:21.358Z,10.60
2022-12-31T12:39:04.969Z,16.80
2022-12-31T12:41:37.974Z,10.30
2022-12-31T12:44:17.276Z,11.00
2022-12-31T12:46:53.552Z,10.30
2022-12-31T12:49:28.618Z,10.50
2022-12-31T12:52:34.452Z,10.00
2022-12-31T12:55:22.110Z,10.30
2022-12-31T12:58:06.542Z,9.40
2022-12-31T13:00:44.921Z,11.20
2022-12-31T13:03:37.396Z,10.20
2022-12-31T13:06:29.466Z,10.20
2022-12-31T13:09:20.614Z,12.50
2022-12-31T13:12:07.773Z,20.00
2022-12-31T13:14:50.080Z,13.30
2022-12-31T13:17:41.081Z,9.50
2022-12-31T13:20:23.189Z,9.30
2022-12-31T13:23:06.806Z,10.00
2022-12-31T13:25:53.297Z,10.80
2022-12-31T13:28:26.211Z,12.30
2022-12-31T13:31:06.849Z,9.70
2022-12-31T13:33:45.618Z,9.90
2022-12-31T13:38:54.417Z,9.80
2022-12-31T13:41:31.731Z,10.60
2022-12-31T13:44:13.468Z,12.30
2022-12-31T13:46:50.342Z,12.60
2022-12-31T13:49:28.539Z,14.80
2022-12-31T13:52:11.478Z,12.90
2022-12-31T13:54:53.395Z,11.20
2022-12-31T13:57:38.747Z,11.20
2022-12-31T14:00:24.284Z,11.20
2022-12-31T14:03:10.096Z,12.50
2022-12-31T14:05:50.293Z,12.80
2022-12-31T14:08:24.029Z,13.60
2022-12-31T14:11:06.402Z,11.60
2022-12-31T14:13:58.272Z,11.60
2022-12-31T14:16:43.900Z,12.30
2022-12-31T14:19:32.506Z,11.60
2022-12-31T14:22:21.793Z,11.10
2022-12-31T14:24:55.663Z,11.80
2022-12-31T14:27:32.594Z,12.20
2022-12-31T14:30:15.788Z,11.70
2022-12-31T14:33:05.540Z,12.60
2022-12-31T14:35:51.186Z,12.00
2022-12-31T14:38:38.247Z,13.10
2022-12-31T14:41:20.858Z,13.90
2022-12-31T14:44:04.785Z,14.00
2022-12-31T14:46:49.844Z,12.40
2022-12-31T14:49:42.553Z,13.40
2022-12-31T14:52:28.704Z,15.00
2022-12-31T14:55:24.500Z,14.50
2022-12-31T15:00:58.015Z,14.70
2022-12-31T15:03:44.693Z,14.00
2022-12-31T15:06:42.431Z,16.00
2022-12-31T15:09:53.835Z,14.50
2022-12-31T15:12:47.667Z,14.40
2022-12-31T15:15:35.171Z,15.10
2022-12-31T15:18:28.519Z,17.20
2022-12-31T15:21:30.027Z,21.00
2022-12-31T15:24:03.348Z,17.00
2022-12-31T15:26:36.392Z,17.70
2022-12-31T15:29:25.626Z,25.10
2022-12-31T15:32:02.147Z,20.70
2022-12-31T15:34:36.661Z,17.90
2022-12-31T15:37:31.372Z,17.30
2022-12-31T15:40:20.920Z,17.10
2022-12-31T15:42:59.565Z,18.00
2022-12-31T15:45:38.960Z,15.60
2022-12-31T15:48:16.848Z,16.00
2022-12-31T15:50:51.126Z,16.70
2022-12-31T15:53:30.947Z,15.30
2022-12-31T15:56:06.459Z,16.70
2022-12-31T15:58:39.806Z,16.80
2022-12-31T16:01:18.833Z,15.10
2022-12-31T16:03:56.121Z,17.00
2022-12-31T16:09:03.182Z,16.50
2022-12-31T16:11:41.763Z,15.70
2022-12-31T16:14:26.318Z,16.40
2022-12-31T16:17:01.484Z,15.10
2022-12-31T16:19:37.376Z,17.10
2022-12-31T16:22:18.384Z,16.20
2022-12-31T16:25:29.013Z,16.80
2022-12-31T16:27:50.231Z,15.50
2022-12-31T16:30:29.664Z,16.00
2022-12-31T16:33:04.304Z,17.00
2022-12-31T16:35:38.090Z,16.20
2022-12-31T16:38:20.941Z,15.80
2022-12-31T16:41:17.725Z,15.70
2022-12-31T16:43:51.473Z,42.20
2022-12-31T16:46:27.299Z,20.30
2022-12-31T16:49:07.228Z,17.00
2022-12-31T16:51:41.093Z,16.10
2022-12-31T16:54:22.061Z,17.10
2022-12-31T16:56:55.169Z,17.00
2022-12-31T16:59:35.202Z,15.60
2022-12-31T17:02:16.260Z,15.50
2022-12-31T17:04:56.057Z,15.80
2022-12-31T17:07:41.699Z,16.00
2022-12-31T17:10:24.926Z,16.30
2022-12-31T17:15:53.697Z,15.90
2022-12-31T17:18:28.577Z,16.00
2022-12-31T17:21:09.958Z,15.60
2022-12-31T17:23:46.856Z,14.40
2022-12-31T17:26:27.983Z,16.60
2022-12-31T17:29:02.468Z,15.60
2022-12-31T17:31:41.569Z,14.80
2022-12-31T17:34:31.089Z,15.70
2022-12-31T17:37:19.941Z,15.10
2022-12-31T17:40:17.088Z,14.90
2022-12-31T17:42:51.647Z,23.10
2022-12-31T17:45:24.785Z,15.00
2022-12-31T17:48:01.168Z,14.10
2022-12-31T17:50:34.312Z,14.20
2022-12-31T17:53:13.819Z,15.60
2022-12-31T17:55:50.022Z,15.70
2022-12-31T17:58:29.795Z,13.80
2022-12-31T18:01:03.529Z,14.60
2022-12-31T18:03:38.013Z,14.10
2022-12-31T18:06:18.376Z,14.00
2022-12-31T18:08:53.025Z,14.00
2022-12-31T18:11:26.737Z,13.30
2022-12-31T18:13:59.576Z,13.20
2022-12-31T18:16:32.301Z,12.50
2022-12-31T18:19:23.500Z,15.70
2022-12-31T18:22:05.083Z,13.60
2022-12-31T18:24:48.325Z,14.50
2022-12-31T18:27:32.390Z,13.20
2022-12-31T18:30:07.115Z,13.00
2022-12-31T18:32:42.191Z,14.00
2022-12-31T18:35:57.569Z,14.20
2022-12-31T18:38:15.319Z,15.80
2022-12-31T18:40:56.094Z,14.50
2022-12-31T18:43:34.303Z,20.50
2022-12-31T18:46:11.229Z,15.70
2022-12-31T18:48:44.413Z,14.30
2022-12-31T18:51:19.846Z,13.50
2022-12-31T18:53:52.358Z,13.40
2022-12-31T18:56:27.876Z,13.50
2022-12-31T18:59:03.335Z,13.80
2022-12-31T19:01:38.355Z,12.50
2022-12-31T19:04:18.724Z,12.80
2022-12-31T19:06:54.729Z,13.30
2022-12-31T19:12:25.066Z,13.50
2022-12-31T19:14:57.583Z,13.90
2022-12-31T19:17:32.549Z,13.80
2022-12-31T19:20:05.660Z,13.20
2022-12-31T19:22:38.184Z,13.20
2022-12-31T19:25:21.268Z,12.90
2022-12-31T19:27:54.522Z,11.90
2022-12-31T19:30:29.003Z,13.70
2022-12-31T19:33:01.956Z,13.30
2022-12-31T19:35:34.550Z,13.00
2022-12-31T19:38:13.436Z,13.70
2022-12-31T19:40:46.598Z,13.60
2022-12-31T19:43:23.930Z,13.00
2022-12-31T19:45:57.168Z,13.40
2022-12-31T19:48:32.915Z,30.20
2022-12-31T19:51:09.805Z,15.40
2022-12-31T19:53:42.380Z,12.40
2022-12-31T19:56:20.024Z,13.10
2022-12-31T19:58:52.667Z,13.40
2022-12-31T20:01:26.567Z,13.00
2022-12-31T20:03:59.698Z,12.30
2022-12-31T20:06:32.283Z,12.50
2022-12-31T20:09:06.998Z,12.10
2022-12-31T20:11:39.755Z,13.10
2022-12-31T20:14:13.198Z,12.80
2022-12-31T20:16:45.881Z,11.50
2022-12-31T20:19:18.812Z,11.40
2022-12-31T20:21:51.418Z,12.60
2022-12-31T20:24:24.116Z,12.10
2022-12-31T20:26:56.650Z,12.00
2022-12-31T20:29:29.520Z,11.20
2022-12-31T20:32:02.190Z,12.70
2022-12-31T20:34:34.870Z,12.60
2022-12-31T20:37:07.814Z,12.40
2022-12-31T20:39:40.411Z,11.70
2022-12-31T20:42:12.952Z,11.60
2022-12-31T20:44:45.526Z,10.90
2022-12-31T20:47:18.478Z,12.10
2022-12-31T20:50:10.906Z,10.60
2022-12-31T20:52:45.638Z,12.10
2022-12-31T20:55:19.227Z,11.00
2022-12-31T20:57:53.869Z,11.80
2022-12-31T21:00:26.541Z,12.70
2022-12-31T21:03:10.487Z,17.80
2022-12-31T21:05:53.962Z,13.40
2022-12-31T21:08:31.131Z,11.30
2022-12-31T21:11:29.697Z,12.10
2022-12-31T21:14:03.054Z,12.40
2022-12-31T21:16:35.979Z,10.90
2022-12-31T21:19:12.678Z,11.50
2022-12-31T21:21:45.215Z,11.80
2022-12-31T21:24:23.529Z,12.90
2022-12-31T21:26:57.872Z,11.90
2022-12-31T21:29:34.539Z,11.30
2022-12-31T21:32:08.337Z,11.70
2022-12-31T21:34:42.221Z,11.80
2022-12-31T21:37:16.998Z,11.50
2022-12-31T21:39:49.484Z,12.80
2022-12-31T21:42:22.077Z,11.90
2022-12-31T21:44:54.637Z,11.90
2022-12-31T21:47:47.592Z,13.10
2022-12-31T21:50:20.981Z,11.90
2022-12-31T21:52:53.496Z,12.60
2022-12-31T21:55:43.344Z,12.00
2022-12-31T21:58:27.267Z,12.90
2022-12-31T22:01:18.764Z,12.80
2022-12-31T22:03:51.470Z,12.40
2022-12-31T22:06:26.021Z,14.40
2022-12-31T22:08:59.001Z,12.70
2022-12-31T22:11:31.669Z,12.70
2022-12-31T22:14:06.661Z,13.20
2022-12-31T22:16:39.650Z,12.60
2022-12-31T22:19:13.866Z,13.30
2022-12-31T22:21:46.386Z,13.60
2022-12-31T22:24:20.213Z,14.40
2022-12-31T22:26:55.708Z,15.50
2022-12-31T22:29:29.176Z,13.90
2022-12-31T22:32:01.800Z,13.70
2022-12-31T22:34:34.317Z,14.20
2022-12-31T22:37:27.485Z,14.10
2022-12-31T22:40:03.104Z,14.30
2022-12-31T22:42:36.253Z,14.10
2022-12-31T22:45:10.979Z,14.70
2022-12-31T22:47:43.550Z,13.70
2022-12-31T22:50:16.479Z,14.50
2022-12-31T22:52:48.973Z,13.50
2022-12-31T22:55:21.655Z,14.30
2022-12-31T22:57:54.451Z,15.20
2022-12-31T23:00:38.756Z,16.90
2022-12-31T23:03:11.497Z,17.60
2022-12-31T23:05:44.290Z,17.90
2022-12-31T23:08:23.133Z,20.80
2022-12-31T23:11:05.749Z,21.30
2022-12-31T23:14:01.603Z,20.70
2022-12-31T23:16:52.075Z,18.70
2022-12-31T23:19:42.017Z,18.90
2022-12-31T23:22:31.652Z,20.80
2022-12-31T23:25:04.211Z,17.10
2022-12-31T23:27:36.814Z,15.50
2022-12-31T23:30:13.025Z,15.60
2022-12-31T23:32:45.567Z,15.10
2022-12-31T23:35:18.210Z,14.40
2022-12-31T23:37:51.025Z,14.20
2022-12-31T23:40:23.725Z,12.90
2022-12-31T23:42:56.967Z,14.60
2022-12-31T23:45:33.041Z,13.90
2022-12-31T23:48:06.613Z,14.00
2022-12-31T23:50:41.316Z,13.80
2022-12-31T23:53:14.251Z,14.30
2022-12-31T23:55:46.782Z,14.50
2022-12-31T23:58:19.414Z,14.20
